Date,TemperatureHighF,TemperatureAvgF,TemperatureLowF,DewpointHighF,DewpointAvgF,DewpointLowF,HumidityHigh,HumidityAvg,HumidityLow,PressureMaxIn,PressureMinIn,WindSpeedMaxMPH,WindSpeedAvgMPH,GustSpeedMaxMPH,PrecipitationSumIn
2013-1-1,14,9,3,6,3,-1,84,76,65,30.29,30.18,8,5,11,0.00
2013-1-2,26,20,9,21,13,2,83,73,55,30.23,30.11,7,3,11,0.00
2013-1-3,26,23,14,21,18,9,86,82,77,30.28,30.10,14,9,19,0.00
2013-1-4,29,21,12,20,15,7,84,76,67,30.25,30.13,18,10,23,0.00
2013-1-5,35,24,16,32,-3,-100,92,65,75,30.25,29.92,14,-223,21,0.03
2013-1-6,35,26,17,32,22,14,89,82,75,30.35,29.90,16,8,23,0.00
2013-1-7,38,28,14,27,21,11,89,76,61,30.34,30.10,15,6,21,0.00
2013-1-8,41,34,22,31,27,19,92,79,65,30.17,29.99,12,3,19,0.00
2013-1-9,41,35,25,32,27,21,87,72,53,30.50,29.96,26,12,30,0.00
2013-1-10,43,31,19,35,27,16,94,85,66,30.54,29.93,6,2,12,0.62
2013-1-11,51,43,36,47,41,35,95,93,83,29.93,29.65,14,3,21,0.09
2013-1-12,50,38,26,46,31,19,86,77,68,30.02,29.66,21,11,27,0.01
2013-1-13,26,19,14,22,13,6,88,76,69,30.25,29.91,14,9,19,0.04
2013-1-14,23,16,10,12,8,5,84,71,48,30.51,30.26,12,4,14,0.00
2013-1-15,29,19,8,18,12,5,88,75,51,30.49,30.15,9,2,12,0.00
2013-1-16,34,27,15,29,20,9,88,75,58,30.15,29.82,21,9,26,0.00
2013-1-17,30,20,11,18,9,2,88,62,44,30.45,30.10,14,5,18,0.00
2013-1-18,41,29,10,31,22,6,88,75,65,30.47,29.87,17,7,32,0.00
2013-1-19,43,38,19,34,28,6,82,69,31,29.92,29.68,32,13,38,0.00
2013-1-20,19,12,8,7,1,-2,69,60,48,30.33,29.94,22,9,29,0.00
2013-1-21,12,5,-1,5,-5,-10,78,63,52,30.34,30.18,17,10,26,0.00
2013-1-22,8,1,-6,-2,-8,-13,79,66,57,30.45,30.34,14,7,19,0.00
2013-1-23,18,12,2,13,4,-3,84,72,58,30.44,30.14,19,8,28,0.00
2013-1-24,19,10,1,10,1,-6,74,65,50,30.71,30.44,11,4,18,0.00
2013-1-25,26,20,17,17,12,5,85,72,54,30.42,29.99,14,6,17,0.02
2013-1-26,26,18,9,13,8,4,81,66,48,30.44,30.23,8,2,11,0.00
2013-1-27,34,28,23,32,22,13,94,80,65,30.41,29.91,6,2,12,0.12
2013-1-28,42,37,31,39,34,29,95,89,75,29.97,29.81,13,4,17,0.07
2013-1-29,58,45,36,55,43,34,96,94,86,29.84,29.46,16,3,22,1.26
2013-1-30,36,29,17,35,26,12,94,89,80,29.62,29.28,18,8,22,0.24
2013-1-31,17,12,4,12,5,-3,84,76,67,30.18,29.62,17,12,23,0.00
2013-2-1,9,2,-3,5,-4,-8,85,76,67,30.39,30.20,15,9,20,0.01
2013-2-2,12,8,0,9,3,-4,88,79,65,30.21,30.09,10,3,12,0.04
2013-2-3,19,13,2,13,7,-1,87,79,63,30.10,30.00,14,5,20,0.01
2013-2-4,20,15,5,14,10,1,88,81,67,30.08,29.97,8,3,12,0.07
2013-2-5,28,18,0,23,14,-3,89,83,73,30.15,29.84,13,5,21,0.02
2013-2-6,34,20,-1,29,15,-5,90,80,66,30.28,30.13,7,1,10,0.00
2013-2-7,34,32,23,32,29,20,94,90,84,30.15,29.92,3,1,4,0.46
2013-2-8,23,19,7,20,15,4,91,86,82,30.45,30.06,8,3,14,0.00
2013-2-9,29,20,6,24,17,3,92,88,82,30.45,30.14,6,1,11,0.00
2013-2-10,45,33,15,42,31,12,95,91,74,30.13,29.45,13,3,19,0.49
2013-2-11,41,32,27,34,26,20,83,78,73,30.01,29.46,32,19,44,0.00
2013-2-12,27,24,18,21,18,16,91,80,73,30.12,29.92,14,7,18,0.00
2013-2-13,38,29,15,30,24,12,92,82,70,29.92,29.74,12,3,14,0.00
2013-2-14,37,34,28,32,28,20,90,79,66,30.00,29.61,18,8,23,0.00
2013-2-15,28,21,14,25,12,6,86,66,48,30.23,30.00,14,7,18,0.00
2013-2-16,16,11,5,6,3,-1,85,69,51,30.25,30.19,12,4,17,0.00
2013-2-17,27,15,2,14,5,-2,86,66,43,30.28,30.04,7,1,10,0.00
2013-2-18,47,36,24,42,29,14,93,76,64,30.03,29.46,20,4,23,0.41
2013-2-19,29,15,9,26,9,0,88,78,67,30.22,29.53,20,14,28,0.00
2013-2-20,19,12,6,12,5,0,87,74,64,30.44,30.22,12,6,17,0.00
2013-2-21,27,20,10,23,16,7,88,84,79,30.48,30.11,8,3,17,0.00
2013-2-22,31,28,25,27,25,22,92,88,83,30.10,29.82,8,4,11,0.32
2013-2-23,27,25,21,24,19,16,87,80,71,29.97,29.88,13,9,17,0.00
2013-2-24,35,24,11,24,18,8,91,79,60,30.19,29.98,6,2,8,0.00
2013-2-25,42,26,12,27,20,9,90,77,53,30.22,30.07,4,0,7,0.00
2013-2-26,35,33,31,31,28,25,93,82,68,30.07,29.61,12,7,24,0.18
2013-2-27,34,32,29,30,29,26,92,89,86,29.77,29.60,11,8,15,0.05
2013-2-28,34,31,25,30,26,19,90,82,74,30.14,29.77,13,8,19,0.00
2013-3-1,25,24,22,20,18,16,83,80,76,30.28,30.13,11,8,17,0.00
2013-3-2,24,18,5,16,11,1,88,76,67,30.28,30.22,10,6,13,0.00
2013-3-3,27,13,-1,13,5,-5,89,71,44,30.22,30.15,7,2,10,0.00
2013-3-4,34,22,4,24,15,0,86,76,61,30.19,30.08,6,2,13,0.00
2013-3-5,31,29,26,28,25,22,91,85,76,30.08,29.90,11,5,19,0.44
2013-3-6,32,29,26,26,24,22,87,81,76,30.34,30.08,12,8,16,0.00
2013-3-7,33,26,14,24,19,11,91,74,59,30.47,30.33,9,3,11,0.00
2013-3-8,40,25,8,29,20,5,93,80,59,30.52,30.34,8,1,9,0.00
2013-3-9,42,35,27,33,29,23,90,79,64,30.34,29.85,5,1,13,0.09
2013-3-10,44,40,36,43,38,33,95,94,87,29.85,29.63,6,1,14,0.61
2013-3-11,39,34,31,38,32,27,95,93,84,29.77,29.56,12,6,19,0.01
2013-3-12,32,29,25,27,24,18,90,82,62,30.03,29.77,16,9,25,0.00
2013-3-13,30,24,19,21,12,7,84,62,40,30.35,30.03,15,9,25,0.00
2013-3-14,34,25,14,27,19,10,90,78,52,30.35,30.12,8,2,12,0.00
2013-3-15,36,32,28,34,29,26,93,88,80,30.11,29.83,6,2,16,0.06
2013-3-16,31,28,24,28,22,19,90,80,64,30.17,29.82,10,6,16,0.00
2013-3-17,33,27,20,23,17,10,81,67,54,30.29,30.05,10,4,19,0.00
2013-3-18,34,29,19,30,24,12,90,83,71,30.05,29.62,23,7,33,0.15
2013-3-19,28,20,13,14,10,6,79,66,49,30.08,29.75,22,16,34,0.00
2013-3-20,20,15,10,10,4,0,66,62,54,30.13,30.07,17,10,25,0.00
2013-3-21,27,18,10,13,8,3,84,67,53,30.11,30.06,11,5,17,0.00
2013-3-22,32,22,12,18,13,8,88,68,43,30.13,30.07,8,2,12,0.00
2013-3-23,40,28,17,25,19,14,89,71,41,30.19,30.10,7,1,14,0.00
2013-3-24,36,32,30,28,25,21,82,75,70,30.10,29.78,13,6,26,0.00
2013-3-25,34,31,27,26,24,21,84,76,67,30.13,29.81,14,8,22,0.00
2013-3-26,39,34,30,27,25,23,79,70,60,30.28,30.13,12,6,17,0.00
2013-3-27,39,34,26,25,22,18,85,62,43,30.34,30.28,9,4,13,0.00
2013-3-28,43,33,24,25,22,19,89,65,39,30.38,30.33,9,2,10,0.00
2013-3-29,47,36,24,28,22,18,89,62,33,30.36,30.27,7,2,11,0.00
2013-3-30,54,41,24,40,31,21,89,70,47,30.27,29.84,13,3,20,0.00
2013-3-31,49,41,33,40,34,20,90,76,56,29.91,29.71,21,10,29,0.00
2013-4-1,34,30,27,21,15,11,74,53,39,30.22,29.91,15,8,23,0.00
2013-4-2,38,31,23,19,14,10,78,52,33,30.36,30.22,13,6,18,0.00
2013-4-3,44,32,20,20,15,4,85,52,22,30.49,30.33,8,2,10,0.00
2013-4-4,54,41,24,34,25,14,76,54,40,30.33,29.99,20,7,25,0.00
2013-4-5,47,38,28,31,25,20,87,61,42,30.27,30.06,8,3,15,0.00
2013-4-6,63,48,34,48,34,22,86,61,40,30.19,29.57,24,5,28,0.16
2013-4-7,54,44,35,48,35,31,86,73,52,30.00,29.57,16,7,22,0.00
2013-4-8,52,42,35,45,38,30,93,86,77,30.02,29.59,14,3,18,0.61
2013-4-9,41,39,37,40,37,35,95,93,91,30.05,29.92,10,4,17,2.04
2013-4-10,39,37,34,36,34,32,93,92,89,30.08,29.88,14,6,20,0.97
2013-4-11,38,37,35,36,35,33,95,93,92,29.94,29.60,9,5,17,0.53
2013-4-12,41,38,36,36,34,29,95,87,75,29.83,29.55,14,8,19,0.04
2013-4-13,38,35,30,30,28,24,86,74,60,30.03,29.82,16,10,22,0.00
2013-4-14,52,39,30,46,34,27,93,84,67,30.05,29.64,9,3,16,0.11
2013-4-15,62,51,41,50,45,35,94,80,44,29.98,29.64,22,8,26,0.69
2013-4-16,52,43,36,38,34,31,90,72,46,30.33,29.97,10,5,16,0.01
2013-4-17,43,41,39,41,36,31,94,83,68,30.34,29.88,11,4,17,0.95
2013-4-18,59,48,40,58,45,34,95,92,79,29.88,29.39,25,6,36,1.50
2013-4-19,40,36,32,34,28,24,84,73,58,29.94,29.41,27,18,40,0.01
2013-4-20,44,34,28,25,20,14,81,58,31,30.46,29.94,13,6,18,0.00
2013-4-21,51,40,27,31,26,21,90,59,36,30.57,30.33,8,3,15,0.00
2013-4-22,67,54,42,38,33,-100,64,47,29,30.33,30.05,10,-1,14,0.00
2013-4-23,52,44,37,47,39,32,90,82,55,30.04,29.90,14,5,17,0.37
2013-4-24,50,42,35,32,27,20,80,57,31,30.08,29.97,14,8,20,0.00
2013-4-25,49,44,36,36,32,25,83,64,40,30.33,30.01,16,9,21,0.00
2013-4-26,65,51,31,46,38,27,89,62,44,30.34,30.20,17,6,23,0.00
2013-4-27,67,56,45,47,43,39,89,64,38,30.27,30.03,10,3,15,0.00
2013-4-28,68,56,49,51,44,-100,90,66,45,30.03,29.81,5,1,8,0.00
2013-4-29,71,60,46,56,50,44,94,73,52,29.89,29.75,11,3,15,0.04
2013-4-30,84,72,61,59,55,47,83,58,29,29.89,29.72,16,7,25,0.00
2013-5-1,83,71,51,58,52,41,71,53,25,30.19,29.90,13,5,16,0.00
2013-5-2,57,48,40,47,40,35,90,75,56,30.26,30.19,10,5,14,0.46
2013-5-3,48,43,38,46,41,36,93,91,86,30.22,30.02,6,4,12,0.46
2013-5-4,70,59,46,49,45,-100,89,63,41,30.07,30.00,6,-2,13,0.00
2013-5-5,73,60,46,46,42,36,85,55,31,30.07,30.02,7,1,10,0.00
2013-5-6,75,61,44,45,39,30,84,49,20,30.08,30.00,6,1,11,0.00
2013-5-7,78,66,50,48,41,32,78,44,22,30.05,30.00,4,1,9,0.00
2013-5-8,79,63,45,51,43,35,88,54,22,30.05,29.97,6,1,8,0.00
2013-5-9,68,56,44,58,49,42,92,79,55,29.97,29.89,6,2,15,0.30
2013-5-10,49,45,41,44,42,39,94,89,82,30.01,29.85,11,5,17,0.83
2013-5-11,52,46,39,48,38,24,95,77,36,30.04,29.82,22,9,30,0.04
2013-5-12,52,44,38,34,28,24,80,55,33,30.13,30.04,16,10,20,0.00
2013-5-13,61,47,32,37,32,22,95,59,28,30.20,29.98,10,2,13,0.00
2013-5-14,84,67,47,61,49,34,74,53,31,29.98,29.56,16,5,20,0.02
2013-5-15,78,71,56,60,48,37,76,47,26,29.83,29.56,13,6,21,0.00
2013-5-16,81,56,54,52,22,-100,86,44,27,29.97,29.82,9,-164,16,0.00
2013-5-17,63,41,50,50,6,-100,90,50,56,30.08,29.96,9,-279,15,0.09
2013-5-18,79,65,52,62,54,46,86,70,52,30.07,29.94,4,1,9,0.00
2013-5-19,84,70,55,67,60,52,94,73,49,29.95,29.67,12,2,12,0.03
2013-5-20,83,74,64,64,60,56,90,64,41,29.74,29.64,17,4,24,0.08
2013-5-21,77,69,60,65,60,56,93,75,49,29.68,29.61,16,5,22,0.08
2013-5-22,68,60,55,64,57,53,94,91,83,29.76,29.61,7,1,11,0.04
2013-5-23,57,50,40,53,46,35,95,84,64,30.33,29.76,12,5,18,0.14
2013-5-24,63,48,35,43,36,32,91,67,37,30.47,30.33,7,2,10,0.00
2013-5-25,60,52,42,42,38,32,88,61,38,30.42,30.31,4,1,7,0.00
2013-5-26,67,53,38,51,42,35,91,70,40,30.32,30.17,5,1,11,0.04
2013-5-27,54,52,50,52,49,43,96,90,70,30.18,29.91,4,1,11,0.04
2013-5-28,71,62,51,67,60,50,97,93,80,29.91,29.69,12,2,14,1.36
2013-5-29,83,71,63,68,64,60,97,82,59,29.91,29.76,10,2,13,0.00
2013-5-30,83,74,64,71,66,61,93,76,59,29.87,29.72,20,4,20,0.62
2013-5-31,75,68,63,67,63,61,95,84,64,29.82,29.68,13,3,16,0.16
2013-6-1,75,69,64,67,64,59,96,83,68,29.69,29.60,11,4,17,0.21
2013-6-2,64,55,46,59,48,43,95,79,62,30.03,29.66,15,6,16,0.00
2013-6-3,69,57,43,49,44,41,96,66,39,30.11,30.02,8,2,9,0.01
2013-6-4,71,59,48,49,46,42,89,63,40,30.18,30.07,4,1,11,0.00
2013-6-5,65,58,52,53,50,45,93,75,58,30.15,29.97,3,0,7,0.09
2013-6-6,59,56,52,53,51,49,92,85,75,29.98,29.91,3,0,8,0.02
2013-6-7,71,61,52,52,46,39,86,61,32,29.99,29.91,6,1,10,0.00
2013-6-8,72,60,46,52,48,43,95,67,38,30.02,29.92,6,1,10,0.00
2013-6-9,79,67,54,61,56,50,87,69,47,30.02,29.81,5,1,15,0.00
2013-6-10,78,68,59,66,62,57,94,82,60,29.84,29.75,4,0,8,0.00
2013-6-11,82,72,59,66,62,58,97,74,49,29.91,29.77,11,2,15,0.00
2013-6-12,77,64,63,67,50,-100,95,76,68,29.87,29.63,14,-83,21,0.25
2013-6-13,75,66,56,62,57,51,95,74,54,30.07,29.65,14,4,17,0.01
2013-6-14,76,62,52,59,48,-100,90,67,50,30.15,30.01,3,-30,6,0.00
2013-6-15,80,66,55,69,60,-100,96,82,66,30.08,29.81,14,-9,19,0.53
2013-6-16,82,73,62,69,60,50,93,68,33,29.90,29.83,17,6,18,0.41
2013-6-17,84,70,58,63,57,53,94,69,36,29.97,29.83,13,4,16,0.00
2013-6-18,70,62,53,57,51,41,89,69,45,30.10,29.95,6,2,12,0.00
2013-6-19,76,62,46,53,47,40,89,61,37,30.17,30.08,3,1,9,0.00
2013-6-20,85,58,54,64,23,-100,80,44,37,30.15,30.04,4,-223,8,0.00
2013-6-21,75,70,61,69,64,56,95,84,71,30.10,29.89,18,1,24,1.82
2013-6-22,79,71,66,73,67,-100,96,89,78,30.14,29.94,11,3,13,1.06
2013-6-23,83,76,71,73,66,-100,87,76,70,29.99,29.92,8,4,10,0.00
2013-6-24,79,73,69,70,68,65,94,85,68,30.03,29.82,13,4,16,0.05
2013-6-25,79,66,65,72,54,-100,95,80,75,29.96,29.79,16,-82,26,1.28
2013-6-26,78,70,67,69,67,64,95,88,72,29.82,29.69,12,1,18,0.55
2013-6-27,84,74,66,71,67,63,95,81,51,29.77,29.66,12,3,18,0.55
2013-6-28,75,70,63,65,62,59,94,77,58,29.70,29.58,14,6,22,0.31
2013-6-29,73,66,63,62,59,53,94,79,52,29.78,29.60,11,4,19,0.07
2013-6-30,78,68,59,59,52,42,79,59,33,29.99,29.78,9,3,16,0.00
2013-7-1,74,63,58,53,49,44,77,60,42,30.07,29.99,7,2,13,0.00
2013-7-2,74,63,55,56,50,40,86,66,34,30.09,30.04,6,1,14,0.00
2013-7-3,69,64,60,63,58,50,92,82,69,30.05,30.00,4,1,9,0.01
2013-7-4,80,70,59,66,60,52,94,72,43,30.08,29.98,5,1,7,0.00
2013-7-5,83,72,62,65,62,59,89,70,48,30.07,29.98,7,1,14,0.00
2013-7-6,84,73,59,68,62,56,94,70,43,30.04,29.94,6,1,11,0.00
2013-7-7,85,77,68,72,68,64,92,75,53,29.97,29.90,9,2,13,0.00
2013-7-8,84,77,71,74,70,68,92,82,66,29.95,29.88,14,5,19,0.60
2013-7-9,82,74,67,75,70,66,95,88,72,29.97,29.80,12,3,17,0.58
2013-7-10,78,73,63,74,63,53,90,72,46,29.99,29.81,13,6,18,0.00
2013-7-11,79,68,58,61,56,51,91,68,39,30.11,29.99,6,1,11,0.00
2013-7-12,82,68,53,61,54,40,92,65,34,30.16,30.06,4,0,8,0.00
2013-7-13,81,70,56,62,58,53,94,69,42,30.16,30.09,3,1,10,0.01
2013-7-14,86,74,61,70,65,58,91,74,53,30.21,30.15,3,0,7,0.00
2013-7-15,89,78,66,74,70,64,93,78,58,30.25,30.19,3,0,8,0.00
2013-7-16,88,80,70,75,72,68,95,78,59,30.26,30.19,8,2,13,0.00
2013-7-17,89,82,75,75,72,68,90,74,56,30.26,30.12,12,2,20,0.00
2013-7-18,90,82,73,74,72,69,93,72,54,30.14,29.88,13,5,19,0.00
2013-7-19,88,82,76,73,71,67,81,69,56,29.87,29.70,21,10,29,0.00
2013-7-20,82,72,62,67,62,58,87,71,47,29.95,29.78,6,2,9,0.00
2013-7-21,81,67,60,69,61,56,94,82,60,29.96,29.83,20,1,38,3.27
2013-7-22,83,73,62,70,66,59,96,78,56,29.89,29.67,21,3,29,0.02
2013-7-23,72,68,58,63,58,52,88,71,52,29.99,29.68,12,5,16,0.03
2013-7-24,73,62,53,57,53,48,92,73,45,30.07,29.99,5,1,9,0.01
2013-7-25,77,66,52,62,56,50,94,74,55,30.09,29.95,8,2,12,0.00
2013-7-26,70,66,62,66,62,57,93,86,71,29.97,29.84,9,2,14,0.40
2013-7-27,62,57,53,57,50,45,91,78,62,29.93,29.87,13,7,22,0.00
2013-7-28,65,58,52,54,51,47,91,77,62,30.01,29.84,12,7,17,0.00
2013-7-29,73,62,56,60,54,51,91,76,56,30.18,30.01,6,2,9,0.00
2013-7-30,73,63,54,63,59,52,94,86,64,30.19,30.08,1,0,8,0.37
2013-7-31,74,66,62,66,63,59,95,90,70,30.08,29.94,10,1,20,1.05
2013-8-1,75,67,60,62,57,50,94,74,42,29.99,29.91,11,3,18,0.00
2013-8-2,78,69,59,65,60,56,93,76,49,29.94,29.83,9,3,18,0.29
2013-8-3,74,66,57,60,54,50,90,68,43,30.11,29.94,10,3,14,0.00
2013-8-4,73,64,53,60,56,51,93,77,52,30.21,30.11,4,0,8,0.01
2013-8-5,71,63,55,63,58,53,93,85,68,30.13,29.86,10,1,16,0.02
2013-8-6,79,71,62,70,66,60,94,84,66,29.87,29.78,10,2,13,0.01
2013-8-7,79,73,62,70,66,60,92,80,54,29.95,29.74,10,5,17,0.00
2013-8-8,76,67,59,62,56,51,94,72,45,30.05,29.95,3,0,8,0.01
2013-8-9,76,67,54,66,59,51,92,76,60,30.04,29.96,11,3,15,0.00
2013-8-10,74,66,57,60,57,51,92,74,47,30.13,30.04,6,1,10,0.00
2013-8-11,73,64,54,66,60,52,94,86,70,30.14,30.01,7,1,9,0.10
2013-8-12,78,69,62,67,64,58,95,83,54,30.02,29.86,6,1,12,0.42
2013-8-13,68,60,53,58,50,44,90,68,49,30.16,29.96,9,4,14,0.00
2013-8-14,70,59,49,56,50,46,93,73,46,30.23,30.13,7,1,12,0.00
2013-8-15,73,62,54,59,55,50,93,79,45,30.15,30.07,5,1,7,0.00
2013-8-16,78,66,55,59,55,51,94,73,41,30.19,30.11,2,0,8,0.00
2013-8-17,78,65,51,62,55,49,94,74,45,30.25,30.17,0,0,0,0.01
2013-8-18,79,65,52,62,56,50,93,74,49,30.22,30.09,3,0,6,0.01
2013-8-19,79,68,55,66,60,53,94,78,53,30.11,30.01,12,2,16,0.00
2013-8-20,82,73,63,67,64,60,93,76,56,30.08,29.99,9,2,17,0.01
2013-8-21,85,77,67,70,67,63,88,71,53,30.03,29.89,14,5,21,0.00
2013-8-22,78,70,64,69,66,62,93,86,73,30.11,29.96,19,2,28,0.49
2013-8-23,79,68,57,64,58,55,94,74,46,30.18,30.10,3,0,11,0.01
2013-8-24,82,68,54,66,60,52,95,77,52,30.25,30.15,5,1,9,0.01
2013-8-25,86,76,65,70,64,57,86,67,44,30.20,30.08,15,6,21,0.00
2013-8-26,87,78,72,74,69,64,80,73,62,30.10,29.93,12,6,18,0.00
2013-8-27,90,82,72,74,72,69,89,71,55,29.94,29.76,14,6,21,0.00
2013-8-28,84,76,67,73,69,64,91,79,63,30.01,29.78,7,2,10,0.00
2013-8-29,87,74,63,70,66,61,94,78,50,30.07,29.95,3,0,7,0.00
2013-8-30,90,74,65,75,68,62,93,84,52,29.96,29.73,17,3,29,0.72
2013-8-31,77,69,62,68,64,60,94,87,74,29.86,29.78,3,0,6,0.00
2013-9-1,81,69,60,70,65,58,96,87,67,29.81,29.69,12,3,15,0.26
2013-9-2,69,64,56,62,58,52,93,81,62,30.00,29.81,10,3,14,0.00
2013-9-3,72,60,51,60,53,49,94,79,48,30.09,30.00,7,2,12,0.00
2013-9-4,78,66,53,66,58,51,94,80,55,30.12,30.03,9,2,14,0.02
2013-9-5,71,64,51,62,54,48,93,73,50,30.27,30.13,3,0,11,0.00
2013-9-6,82,66,48,68,58,45,94,77,57,30.24,29.99,6,1,11,0.00
2013-9-7,82,72,66,70,66,61,92,80,60,29.99,29.87,12,2,15,0.00
2013-9-8,71,68,65,66,63,61,90,86,80,30.04,29.95,4,1,14,0.00
2013-9-9,88,77,65,76,70,63,94,80,65,29.97,29.77,7,2,12,0.00
2013-9-10,91,83,75,71,64,58,72,56,35,29.91,29.79,17,9,23,0.00
2013-9-11,80,74,67,67,65,63,90,75,58,30.05,29.91,12,3,15,0.00
2013-9-12,72,66,58,65,57,46,95,76,47,30.11,29.94,14,5,21,0.00
2013-9-13,63,55,47,48,43,37,89,67,40,30.21,30.11,8,3,14,0.00
2013-9-14,69,56,43,49,45,41,93,70,44,30.19,30.02,8,1,11,0.01
2013-9-15,59,56,53,56,52,45,94,87,64,30.22,30.00,8,1,15,0.62
2013-9-16,63,53,43,51,45,40,91,75,53,30.40,30.23,8,3,16,0.00
2013-9-17,68,55,40,54,48,38,95,81,58,30.36,30.12,3,1,10,0.01
2013-9-18,76,66,57,67,60,53,93,83,68,30.12,29.90,7,1,14,0.11
2013-9-19,82,72,66,73,67,62,94,86,62,29.92,29.72,16,2,22,0.75
2013-9-20,71,66,58,66,60,53,94,82,67,29.81,29.70,14,8,20,0.01
2013-9-21,58,54,48,54,48,44,91,82,63,29.96,29.81,13,5,17,0.00
2013-9-22,64,52,44,48,44,40,92,76,47,30.09,29.97,5,1,7,0.00
2013-9-23,65,52,42,52,46,40,94,82,58,30.15,30.06,3,0,11,0.01
2013-9-24,69,56,47,54,49,44,95,80,54,30.08,29.98,3,0,8,0.01
2013-9-25,68,56,48,56,50,45,95,81,56,30.01,29.96,2,0,8,0.01
2013-9-26,74,58,46,60,50,44,96,78,39,30.10,29.99,3,0,9,0.01
2013-9-27,78,61,47,58,52,46,95,75,43,30.16,30.06,4,0,9,0.01
2013-9-28,79,64,51,64,56,49,94,77,50,30.07,29.83,18,3,23,0.10
2013-9-29,68,57,47,53,47,37,94,73,34,30.06,29.94,6,2,10,0.05
2013-9-30,72,56,41,51,46,39,95,73,41,30.01,29.85,4,1,9,0.01
2013-10-1,79,66,51,62,58,47,92,77,51,29.95,29.84,17,5,22,0.00
2013-10-2,76,61,49,58,48,37,94,68,27,30.12,29.96,2,0,3,0.00
2013-10-3,74,65,55,67,62,51,95,89,74,30.00,29.83,4,0,11,0.26
2013-10-4,67,64,61,65,62,60,95,93,90,30.00,29.88,7,0,8,0.19
2013-10-5,73,66,62,70,64,59,96,94,86,29.96,29.73,11,0,15,0.34
2013-10-6,64,54,46,58,45,39,90,74,52,29.76,29.67,16,6,19,0.06
2013-10-7,65,52,44,49,45,40,94,78,41,30.10,29.73,11,6,16,0.00
2013-10-8,74,56,39,53,45,37,94,71,34,30.18,30.10,10,1,14,0.01
2013-10-9,72,56,44,52,46,39,94,72,33,30.24,30.14,4,0,10,0.00
2013-10-10,73,56,42,55,48,40,96,78,43,30.18,30.06,2,0,7,0.01
2013-10-11,74,60,49,59,52,48,95,78,51,30.07,29.95,5,1,12,0.00
2013-10-12,67,60,44,61,52,41,91,77,44,30.16,29.92,13,3,16,0.10
2013-10-13,59,48,38,43,40,34,94,75,40,30.43,30.16,11,3,17,0.01
2013-10-14,60,47,35,47,40,33,94,80,55,30.44,30.15,5,0,11,0.01
2013-10-15,61,53,46,58,49,43,94,87,75,30.15,29.74,13,3,18,0.41
2013-10-16,54,50,47,49,46,43,92,88,80,29.94,29.79,13,7,16,0.01
2013-10-17,49,46,41,45,43,38,94,90,82,29.92,29.83,8,2,10,0.19
2013-10-18,48,43,36,43,39,35,94,85,72,29.97,29.83,13,5,19,0.01
2013-10-19,50,43,38,40,37,32,93,79,51,29.94,29.76,22,5,30,0.00
2013-10-20,52,44,36,47,40,34,95,83,59,29.88,29.74,11,2,14,0.04
2013-10-21,49,41,33,44,32,24,84,71,55,29.96,29.76,15,9,19,0.01
2013-10-22,44,36,30,33,28,25,90,75,55,30.00,29.92,8,4,11,0.00
2013-10-23,42,36,28,31,27,22,88,71,46,30.04,29.96,11,5,16,0.00
2013-10-24,42,36,31,29,27,25,82,69,54,30.32,30.03,12,6,17,0.00
2013-10-25,49,40,26,30,27,23,91,64,42,30.41,29.96,22,8,29,0.00
2013-10-26,49,46,40,36,30,27,72,55,44,30.08,29.81,21,11,31,0.00
2013-10-27,52,40,28,34,30,25,91,69,42,30.07,29.94,15,4,20,0.00
2013-10-28,45,39,32,37,28,-100,90,70,64,30.43,30.07,6,-156,14,0.00
2013-10-29,54,44,37,42,38,30,93,80,63,30.41,30.16,4,0,9,0.00
2013-10-30,59,51,44,55,48,41,95,90,84,30.16,29.75,7,1,16,0.03
2013-10-31,61,56,44,59,54,40,96,93,86,29.75,29.21,16,5,23,0.78
2013-11-1,46,44,42,43,40,38,92,87,84,29.75,29.32,17,8,24,0.06
2013-11-2,44,40,38,40,37,36,94,89,79,30.17,29.75,10,4,13,0.04
2013-11-3,51,41,31,39,35,30,95,81,50,30.33,30.17,4,1,9,0.01
2013-11-4,56,49,43,44,40,36,83,72,57,30.27,30.08,9,3,17,0.00
2013-11-5,55,51,47,50,47,44,93,86,75,30.26,29.91,4,1,15,0.05
2013-11-6,55,45,34,53,40,26,93,84,65,30.16,29.74,15,7,22,0.44
2013-11-7,41,36,30,32,29,26,86,77,65,30.26,30.16,12,5,16,0.00
2013-11-8,47,38,26,34,30,24,93,76,61,30.34,29.87,6,2,15,0.01
2013-11-9,52,47,41,40,36,26,77,65,54,30.08,29.79,23,14,43,0.00
2013-11-10,46,42,37,33,30,27,71,62,50,30.34,30.08,14,9,20,0.00
2013-11-11,44,34,23,34,27,16,91,76,65,30.56,30.07,13,7,17,0.13
2013-11-12,30,25,19,19,16,13,83,72,52,30.74,30.56,13,7,18,0.00
2013-11-13,40,31,20,22,18,13,80,60,35,30.61,30.13,23,12,27,0.00
2013-11-14,45,39,32,30,25,19,73,58,49,30.12,29.92,20,9,25,0.00
2013-11-15,52,42,37,34,31,27,86,64,47,29.96,29.90,11,3,16,0.00
2013-11-16,58,49,38,54,46,33,93,89,80,29.92,29.53,14,4,22,0.30
2013-11-17,64,52,40,60,49,35,95,87,77,29.66,29.03,24,10,34,1.47
2013-11-18,40,35,28,35,27,22,82,73,62,30.27,29.67,20,12,28,0.00
2013-11-19,40,30,21,29,24,18,92,79,56,30.41,30.28,4,1,9,0.00
2013-11-20,42,36,30,34,29,26,93,77,54,30.30,30.12,5,2,11,0.09
2013-11-21,44,41,36,40,38,34,95,89,82,30.25,30.13,7,2,10,0.00
2013-11-22,39,32,25,36,27,19,91,80,66,30.49,30.24,12,7,17,0.00
2013-11-23,25,19,13,19,9,5,79,65,55,30.75,30.44,19,11,29,0.00
2013-11-24,25,18,10,11,7,4,82,62,42,30.75,30.34,16,8,22,0.00
2013-11-25,30,27,22,26,20,10,88,77,55,30.34,30.07,19,11,25,0.00
2013-11-26,32,26,14,26,18,5,85,73,55,30.22,30.05,16,7,22,0.00
2013-11-27,24,18,10,15,10,4,82,71,58,30.29,30.21,12,6,17,0.00
2013-11-28,27,23,12,18,15,9,89,71,62,30.54,30.21,10,3,13,0.00
2013-11-29,32,22,9,23,16,5,89,76,54,30.68,30.41,5,1,8,0.00
2013-11-30,45,34,27,33,27,22,92,77,61,30.41,30.06,11,2,16,0.00
2013-12-1,40,32,26,30,27,24,92,81,61,30.15,30.01,6,1,11,0.00
2013-12-2,41,31,20,34,27,17,93,84,64,30.01,29.79,5,1,13,0.11
2013-12-3,40,38,33,39,36,31,96,95,93,29.79,29.70,4,1,9,0.11
2013-12-4,51,43,36,49,42,32,96,95,85,29.76,29.48,24,4,33,0.00
2013-12-5,36,24,17,32,17,-100,89,75,66,30.29,29.63,22,10,27,0.00
2013-12-6,17,13,10,12,7,3,83,76,65,30.59,30.27,12,8,16,0.00
2013-12-7,16,9,4,6,3,-1,86,77,61,30.75,30.59,12,5,16,0.00
2013-12-8,25,19,8,23,15,3,94,85,67,30.68,29.97,5,2,10,0.18
2013-12-9,24,13,-2,23,8,-6,94,81,67,30.22,29.94,25,11,31,0.00
2013-12-10,19,9,-4,12,3,-8,85,77,67,30.32,30.00,23,10,28,0.00
2013-12-11,15,8,-6,12,2,-9,88,77,59,30.59,30.30,14,6,20,0.00
2013-12-12,18,9,-4,13,3,-8,81,76,69,30.57,30.24,18,8,24,0.00
2013-12-13,28,22,14,24,18,10,87,83,74,30.25,30.18,7,3,14,0.00
2013-12-14,29,25,20,25,22,18,92,88,83,30.19,29.95,8,4,13,0.03
2013-12-15,21,13,5,18,5,-4,90,72,61,30.18,29.92,16,9,22,0.00
2013-12-16,18,10,-1,12,2,-100,89,75,51,30.22,30.06,11,-9,12,0.05
2013-12-17,33,25,15,25,19,12,92,80,62,30.09,29.94,15,10,22,0.00
2013-12-18,35,25,12,26,17,7,84,71,47,30.15,29.81,13,6,18,0.00
2013-12-19,33,30,21,31,26,19,94,88,78,29.99,29.82,8,3,13,0.04
2013-12-20,33,28,25,31,27,23,94,93,92,29.88,29.79,9,4,13,0.16
2013-12-21,33,28,24,32,27,23,96,95,93,29.92,29.67,7,3,17,0.00
2013-12-22,32,26,21,30,24,19,96,93,90,30.14,29.67,12,6,16,0.91
2013-12-23,21,11,0,20,8,-4,93,87,82,30.46,30.14,12,7,16,0.02
2013-12-24,12,4,-5,10,1,-8,89,85,79,30.61,30.39,7,2,9,0.01
2013-12-25,24,20,12,21,18,10,91,89,86,30.39,30.11,13,7,16,0.01
2013-12-26,27,21,11,24,18,8,93,87,79,30.29,30.11,12,4,15,0.00
2013-12-27,39,27,14,32,24,11,94,87,75,30.30,30.04,18,5,21,0.00
2013-12-28,41,36,24,34,31,22,95,81,73,30.08,29.77,11,6,19,0.00
2013-12-29,41,22,1,31,17,-5,91,79,67,30.25,29.75,17,10,24,0.00
2013-12-30,4,-1,-8,-1,-7,-13,84,73,54,30.39,30.25,9,4,12,0.00
2013-12-31,8,4,-3,4,0,-7,86,83,75,30.42,30.25,9,4,11,0.03
2014-1-1,17,10,4,13,6,-4,88,81,69,30.41,30.30,9,5,15,0.02
2014-1-2,13,8,-8,7,2,-100,86,80,68,30.49,30.27,14,7,16,0.00